Algosea — CFN4229 — position and weather

sailwx.info

Track history (hours):
 
Tides and Currents Weather Stations Pressure Air Temp Water Temp Dewpoint Dewpoint Depression Visibility Wind Speed Wind Dir Waves Ship Positions

Algosea

Last reported at 2015-May-02 11:33 UTC. Time now 2015-May-05 16:17 UTC.
Position N 42°47' W 080°02'.

Length 144 m; draft 7.3 m.

Type: Ship (hazmat cat C). MMSI: 316006868.

Date/timePositionNaut miles runAvg speedWind from/ knotsBaromVisibWave heightAir tempDewpointWater temp
2015-May-02 11:33N 42°47' W 080°02'7 6.8
2015-May-02 10:33N 42°44' W 080°11'0 0.0
2015-May-02 09:29N 42°44' W 080°11'0 0.0
2015-May-02 08:32N 42°44' W 080°11'0 0.0
2015-May-02 07:29N 42°44' W 080°11'0 0.0
2015-May-02 06:26N 42°44' W 080°11'0 0.1
2015-May-02 05:32N 42°44' W 080°11'0 0.1
2015-May-02 04:29N 42°44' W 080°11'0 0.1
2015-May-02 03:29N 42°44' W 080°11'0 0.0
2015-May-02 02:29N 42°44' W 080°11'0 0.0
2015-May-02 01:29N 42°44' W 080°11'0 0.0
2015-May-02 00:29N 42°44' W 080°11'0 0.0
2015-May-01 23:32N 42°44' W 080°11'0 0.0
2015-May-01 22:29N 42°44' W 080°11'0 0.0
2015-May-01 21:29N 42°44' W 080°11'0 0.0
2015-May-01 20:32N 42°44' W 080°11'0 0.0
2015-May-01 19:32N 42°44' W 080°11'0 0.0
2015-May-01 18:32N 42°44' W 080°11'0 0.0
2015-May-01 17:29N 42°44' W 080°11'0 0.0
2015-May-01 16:23N 42°44' W 080°11'0 0.2
2015-May-01 15:29N 42°44' W 080°11'0 0.0
2015-May-01 14:29N 42°44' W 080°11'0 0.0
2015-May-01 13:29N 42°44' W 080°11'0 0.0
2015-May-01 12:29N 42°44' W 080°11'0 0.0
2015-May-01 11:29N 42°44' W 080°11'0 0.0
2015-May-01 10:32N 42°44' W 080°11'0 0.0
2015-May-01 09:29N 42°44' W 080°11'0 0.0
2015-May-01 08:29N 42°44' W 080°11'0 0.0
2015-May-01 07:23N 42°44' W 080°11'0 0.0
2015-May-01 06:29N 42°44' W 080°11'0 0.1
2015-May-01 05:29N 42°44' W 080°11'0 0.1
2015-May-01 04:32N 42°44' W 080°11'0 0.0
2015-May-01 03:29N 42°44' W 080°11'0 0.0
2015-May-01 02:29N 42°44' W 080°11'0 0.0
2015-May-01 01:29N 42°44' W 080°11'0 0.1
2015-May-01 00:29N 42°44' W 080°11'0 0.1
2015-Apr-30 23:32N 42°44' W 080°11'0 0.0
2015-Apr-30 22:23N 42°44' W 080°11'0 0.0
2015-Apr-30 21:29N 42°44' W 080°11'0 0.0
2015-Apr-30 20:24N 42°44' W 080°11'0 0.1
2015-Apr-30 19:31N 42°44' W 080°11'0 0.0
2015-Apr-30 18:29N 42°44' W 080°11'0 0.1
2015-Apr-30 17:29N 42°44' W 080°11'0 0.0
2015-Apr-30 16:28N 42°44' W 080°11'0 0.0
2015-Apr-30 15:32N 42°44' W 080°11'0 0.0
2015-Apr-30 14:29N 42°44' W 080°11'0 0.0
2015-Apr-30 13:32N 42°44' W 080°11'0 0.0
2015-Apr-30 12:31N 42°44' W 080°11'0 0.0
2015-Apr-30 11:27N 42°44' W 080°11'0 0.0
2015-Apr-30 10:33N 42°44' W 080°11'0 0.0
2015-Apr-30 09:33N 42°44' W 080°11'0 0.0
2015-Apr-30 08:33N 42°44' W 080°11'0 0.0
2015-Apr-30 07:33N 42°44' W 080°11'0 0.0
2015-Apr-30 06:33N 42°44' W 080°11'0 0.0
2015-Apr-30 05:33N 42°44' W 080°11'0 0.0
2015-Apr-30 04:33N 42°44' W 080°11'4 3.8
2015-Apr-30 03:33N 42°41' W 080°08'1111.0
2015-Apr-30 02:33N 42°32' W 079°60'  
2015-Apr-26 08:21N 42°27' W 080°16'1114.2
2015-Apr-26 07:33N 42°31' W 080°02'1110.8
2015-Apr-26 06:33N 42°41' W 080°04'7 5.3
2015-Apr-26 05:16N 42°48' W 080°03'0 0.0
2015-Apr-24 12:34N 42°48' W 080°03'6 5.7
2015-Apr-24 11:34N 42°42' W 080°05'6 6.3
2015-Apr-24 10:33N 42°36' W 080°02'  
Track history (hours):
 
Tides and Currents Weather Stations Pressure Air Temp Water Temp Dewpoint Dewpoint Depression Visibility Wind Speed Wind Dir Waves Ship Positions

Algosea

Last reported at 2015-May-02 11:33 UTC. Time now 2015-May-05 16:17 UTC.
Position N 42°47' W 080°02'.

Length 144 m; draft 7.3 m.

Type: Ship (hazmat cat C). MMSI: 316006868.

Date/timePositionNaut miles runAvg speedWind from/ knotsBaromVisibWave heightAir tempDewpointWater temp
2015-May-02 11:33N 42°47' W 080°02'7 6.8
2015-May-02 10:33N 42°44' W 080°11'0 0.0
2015-May-02 09:29N 42°44' W 080°11'0 0.0
2015-May-02 08:32N 42°44' W 080°11'0 0.0
2015-May-02 07:29N 42°44' W 080°11'0 0.0
2015-May-02 06:26N 42°44' W 080°11'0 0.1
2015-May-02 05:32N 42°44' W 080°11'0 0.1
2015-May-02 04:29N 42°44' W 080°11'0 0.1
2015-May-02 03:29N 42°44' W 080°11'0 0.0
2015-May-02 02:29N 42°44' W 080°11'0 0.0
2015-May-02 01:29N 42°44' W 080°11'0 0.0
2015-May-02 00:29N 42°44' W 080°11'0 0.0
2015-May-01 23:32N 42°44' W 080°11'0 0.0
2015-May-01 22:29N 42°44' W 080°11'0 0.0
2015-May-01 21:29N 42°44' W 080°11'0 0.0
2015-May-01 20:32N 42°44' W 080°11'0 0.0
2015-May-01 19:32N 42°44' W 080°11'0 0.0
2015-May-01 18:32N 42°44' W 080°11'0 0.0
2015-May-01 17:29N 42°44' W 080°11'0 0.0
2015-May-01 16:23N 42°44' W 080°11'0 0.2
2015-May-01 15:29N 42°44' W 080°11'0 0.0
2015-May-01 14:29N 42°44' W 080°11'0 0.0
2015-May-01 13:29N 42°44' W 080°11'0 0.0
2015-May-01 12:29N 42°44' W 080°11'0 0.0
2015-May-01 11:29N 42°44' W 080°11'0 0.0
2015-May-01 10:32N 42°44' W 080°11'0 0.0
2015-May-01 09:29N 42°44' W 080°11'0 0.0
2015-May-01 08:29N 42°44' W 080°11'0 0.0
2015-May-01 07:23N 42°44' W 080°11'0 0.0
2015-May-01 06:29N 42°44' W 080°11'0 0.1
2015-May-01 05:29N 42°44' W 080°11'0 0.1
2015-May-01 04:32N 42°44' W 080°11'0 0.0
2015-May-01 03:29N 42°44' W 080°11'0 0.0
2015-May-01 02:29N 42°44' W 080°11'0 0.0
2015-May-01 01:29N 42°44' W 080°11'0 0.1
2015-May-01 00:29N 42°44' W 080°11'0 0.1
2015-Apr-30 23:32N 42°44' W 080°11'0 0.0
2015-Apr-30 22:23N 42°44' W 080°11'0 0.0
2015-Apr-30 21:29N 42°44' W 080°11'0 0.0
2015-Apr-30 20:24N 42°44' W 080°11'0 0.1
2015-Apr-30 19:31N 42°44' W 080°11'0 0.0
2015-Apr-30 18:29N 42°44' W 080°11'0 0.1
2015-Apr-30 17:29N 42°44' W 080°11'0 0.0
2015-Apr-30 16:28N 42°44' W 080°11'0 0.0
2015-Apr-30 15:32N 42°44' W 080°11'0 0.0
2015-Apr-30 14:29N 42°44' W 080°11'0 0.0
2015-Apr-30 13:32N 42°44' W 080°11'0 0.0
2015-Apr-30 12:31N 42°44' W 080°11'0 0.0
2015-Apr-30 11:27N 42°44' W 080°11'0 0.0
2015-Apr-30 10:33N 42°44' W 080°11'0 0.0
2015-Apr-30 09:33N 42°44' W 080°11'0 0.0
2015-Apr-30 08:33N 42°44' W 080°11'0 0.0
2015-Apr-30 07:33N 42°44' W 080°11'0 0.0
2015-Apr-30 06:33N 42°44' W 080°11'0 0.0
2015-Apr-30 05:33N 42°44' W 080°11'0 0.0
2015-Apr-30 04:33N 42°44' W 080°11'4 3.8
2015-Apr-30 03:33N 42°41' W 080°08'1111.0
2015-Apr-30 02:33N 42°32' W 079°60'  
2015-Apr-26 08:21N 42°27' W 080°16'1114.2
2015-Apr-26 07:33N 42°31' W 080°02'1110.8
2015-Apr-26 06:33N 42°41' W 080°04'7 5.3
2015-Apr-26 05:16N 42°48' W 080°03'0 0.0
2015-Apr-24 12:34N 42°48' W 080°03'6 5.7
2015-Apr-24 11:34N 42°42' W 080°05'6 6.3
2015-Apr-24 10:33N 42°36' W 080°02'  

Dump ship's entire track history